Time;durP1;ratioP1;P1;durP2;ratioP2;P2;SDS_P1;SDS_P2;PMS_P1;PMS_P2;Temp;Humidity;BMP_temperature;BMP_pressure;BME280_temperature;BME280_humidity;BME280_pressure;Samples;Min_cycle;Max_cycle;Signal;HPM_P1;HPM_P2
2021/03/04 00:01:37;;;;;;;2.75;1.80;;;18.60;67.50;;;;;;5107834;28;20070;-31
2021/03/04 00:04:03;;;;;;;3.08;1.88;;;18.70;67.40;;;;;;5107359;28;20035;-36
2021/03/04 00:06:29;;;;;;;1.92;1.73;;;18.70;67.10;;;;;;5106061;28;20044;-32
2021/03/04 00:08:54;;;;;;;1.75;1.65;;;18.60;67.00;;;;;;5109125;28;20043;-30
2021/03/04 00:11:20;;;;;;;2.05;1.85;;;18.60;67.40;;;;;;5109497;27;20521;-33
2021/03/04 00:13:45;;;;;;;3.80;1.90;;;18.60;67.30;;;;;;5106549;28;20050;-39
2021/03/04 00:16:11;;;;;;;1.90;1.80;;;18.60;67.20;;;;;;5105896;28;20047;-32
2021/03/04 00:18:37;;;;;;;3.13;1.80;;;18.60;67.20;;;;;;5108421;28;20122;-33
2021/03/04 00:21:02;;;;;;;1.85;1.75;;;18.60;67.10;;;;;;5107548;28;20115;-30
2021/03/04 00:23:28;;;;;;;1.65;1.52;;;18.60;67.10;;;;;;5108685;28;20071;-37
2021/03/04 00:25:53;;;;;;;2.10;2.00;;;18.60;67.10;;;;;;5107773;28;20104;-33
2021/03/04 00:28:19;;;;;;;4.43;1.80;;;18.60;67.10;;;;;;5106841;28;20576;-36
2021/03/04 00:30:45;;;;;;;1.83;1.67;;;18.60;67.10;;;;;;5106487;28;20043;-32
2021/03/04 00:33:10;;;;;;;2.75;1.98;;;18.60;67.00;;;;;;5106203;28;20074;-34
2021/03/04 00:35:36;;;;;;;1.80;1.70;;;18.60;67.20;;;;;;5110116;28;20092;-37
2021/03/04 00:38:01;;;;;;;2.00;1.75;;;18.60;67.90;;;;;;5105730;28;20054;-31
2021/03/04 00:40:27;;;;;;;2.40;2.00;;;18.60;66.90;;;;;;5106681;28;20100;-33
2021/03/04 00:42:53;;;;;;;2.10;1.90;;;18.60;67.10;;;;;;5108514;28;20039;-36
2021/03/04 00:45:20;;;;;;;1.85;1.70;;;18.60;67.20;;;;;;5105721;28;20039;-33
2021/03/04 00:47:45;;;;;;;1.90;1.80;;;18.50;67.20;;;;;;5110238;28;20451;-36
2021/03/04 00:50:11;;;;;;;3.90;1.73;;;18.50;67.20;;;;;;5111179;28;20088;-33
2021/03/04 00:52:37;;;;;;;1.95;1.70;;;18.50;67.30;;;;;;5110663;28;20517;-34
2021/03/04 00:55:04;;;;;;;2.47;2.28;;;18.60;67.40;;;;;;5106644;28;20040;-36
2021/03/04 00:57:29;;;;;;;1.70;1.60;;;18.60;67.20;;;;;;5108780;27;20047;-36
2021/03/04 00:59:55;;;;;;;2.03;1.73;;;18.50;67.20;;;;;;5112759;28;20039;-30
2021/03/04 01:02:20;;;;;;;2.53;1.70;;;18.60;67.00;;;;;;5113298;28;20039;-33
2021/03/04 01:04:46;;;;;;;2.65;1.40;;;18.50;67.90;;;;;;5109369;28;20501;-37
2021/03/04 01:07:11;;;;;;;1.80;1.60;;;18.50;67.10;;;;;;5110626;28;20612;-36
2021/03/04 01:09:37;;;;;;;1.75;1.65;;;18.50;67.10;;;;;;5109173;28;20051;-35
2021/03/04 01:12:03;;;;;;;2.45;1.60;;;18.50;67.20;;;;;;5112360;28;20055;-35
2021/03/04 01:14:29;;;;;;;1.92;1.70;;;18.50;67.20;;;;;;5110712;28;20051;-32
2021/03/04 01:16:54;;;;;;;2.00;1.80;;;18.50;66.90;;;;;;5106869;28;20047;-32
2021/03/04 01:19:20;;;;;;;1.83;1.73;;;18.50;67.30;;;;;;5103234;28;20051;-35
2021/03/04 01:21:45;;;;;;;1.70;1.60;;;18.40;67.40;;;;;;5111121;27;20050;-32
2021/03/04 01:24:11;;;;;;;1.95;1.63;;;18.50;67.50;;;;;;5107874;28;20547;-33
2021/03/04 01:26:37;;;;;;;2.38;1.98;;;18.40;67.40;;;;;;5113774;28;20038;-32
2021/03/04 01:29:03;;;;;;;1.80;1.63;;;18.50;67.10;;;;;;5108987;28;20540;-32
2021/03/04 01:31:28;;;;;;;2.38;1.67;;;18.50;67.20;;;;;;5108082;28;20051;-34
2021/03/04 01:33:54;;;;;;;1.70;1.60;;;18.40;67.30;;;;;;5110508;28;20048;-33
2021/03/04 01:36:19;;;;;;;2.22;2.10;;;18.40;67.30;;;;;;5109141;28;20640;-32
2021/03/04 01:38:45;;;;;;;1.70;1.60;;;18.40;67.30;;;;;;5113761;27;20038;-38
2021/03/04 01:41:11;;;;;;;1.75;1.65;;;18.50;67.70;;;;;;5110884;27;20048;-31
2021/03/04 01:43:36;;;;;;;1.85;1.75;;;18.40;67.30;;;;;;5110026;28;20057;-32
2021/03/04 01:46:02;;;;;;;1.73;1.63;;;18.50;67.50;;;;;;5109932;27;20039;-33
2021/03/04 01:48:27;;;;;;;1.85;1.75;;;18.50;67.50;;;;;;5109090;27;21641;-33
2021/03/04 01:50:53;;;;;;;2.50;1.52;;;18.50;67.20;;;;;;5092766;28;20063;-37
2021/03/04 01:53:18;;;;;;;2.58;1.92;;;18.50;67.10;;;;;;5108651;28;20054;-33
2021/03/04 01:55:44;;;;;;;2.63;1.70;;;18.50;67.40;;;;;;5110326;27;20047;-31
2021/03/04 01:58:10;;;;;;;1.88;1.77;;;18.40;67.10;;;;;;5110232;28;20044;-31
2021/03/04 02:00:35;;;;;;;2.00;1.90;;;18.50;67.20;;;;;;5108853;28;20132;-33
2021/03/04 02:03:01;;;;;;;2.17;1.60;;;18.40;67.30;;;;;;5110280;28;20122;-34
2021/03/04 02:05:26;;;;;;;2.63;1.60;;;18.40;67.20;;;;;;5112867;28;20066;-32
2021/03/04 02:08:06;;;;;;;2.70;1.92;;;18.40;67.30;;;;;;5109611;28;20085;-36
2021/03/04 02:10:43;;;;;;;1.85;1.75;;;18.40;67.40;;;;;;5109665;28;20055;-34
2021/03/04 02:13:34;;;;;;;1.88;1.77;;;18.40;67.40;;;;;;5110513;28;20623;-36
2021/03/04 02:16:05;;;;;;;1.55;1.45;;;18.40;67.60;;;;;;5108992;28;20070;-34
2021/03/04 02:18:35;;;;;;;1.63;1.52;;;18.30;67.40;;;;;;5104432;28;20482;-30
2021/03/04 02:21:25;;;;;;;2.40;2.20;;;18.40;67.50;;;;;;5109627;28;20043;-34
2021/03/04 02:24:19;;;;;;;2.22;2.03;;;18.30;67.40;;;;;;5107865;28;20044;-35
2021/03/04 02:27:05;;;;;;;1.80;1.70;;;18.30;67.50;;;;;;5108919;27;20036;-35
2021/03/04 02:29:46;;;;;;;1.60;1.50;;;18.30;67.60;;;;;;5110918;28;20096;-35
2021/03/04 02:32:11;;;;;;;1.70;1.60;;;18.30;67.50;;;;;;5110355;28;20138;-32
2021/03/04 02:34:48;;;;;;;1.67;1.58;;;18.30;67.50;;;;;;5109188;28;20139;-35
2021/03/04 02:37:19;;;;;;;1.88;1.77;;;18.30;67.50;;;;;;5092689;28;20130;-31
2021/03/04 02:39:45;;;;;;;1.65;1.55;;;18.30;67.70;;;;;;5109612;28;20124;-31
2021/03/04 02:42:13;;;;;;;1.70;1.60;;;18.30;67.60;;;;;;5109060;28;20052;-33
2021/03/04 02:44:39;;;;;;;1.98;1.88;;;18.30;67.60;;;;;;5111116;28;20074;-31
2021/03/04 02:47:04;;;;;;;1.70;1.60;;;18.30;67.50;;;;;;5109617;28;20079;-32
2021/03/04 02:49:30;;;;;;;2.30;1.80;;;18.40;67.60;;;;;;5106126;28;20088;-30
2021/03/04 02:51:56;;;;;;;1.73;1.63;;;18.40;67.60;;;;;;5109502;28;20054;-30
2021/03/04 02:54:21;;;;;;;1.70;1.60;;;18.50;67.20;;;;;;5103438;28;20035;-32
2021/03/04 02:56:47;;;;;;;1.45;1.35;;;18.50;67.30;;;;;;5093775;28;20397;-36
2021/03/04 02:59:12;;;;;;;1.80;1.70;;;18.50;67.00;;;;;;5107021;28;20038;-35
2021/03/04 03:01:38;;;;;;;1.70;1.60;;;18.50;67.20;;;;;;5110144;28;20498;-35
2021/03/04 03:04:04;;;;;;;1.83;1.73;;;18.50;67.50;;;;;;5109628;28;20036;-35
2021/03/04 03:06:29;;;;;;;2.13;1.50;;;18.40;67.10;;;;;;5108447;28;20039;-34
2021/03/04 03:08:55;;;;;;;1.95;1.75;;;18.50;67.00;;;;;;5110579;27;20073;-32
2021/03/04 03:11:21;;;;;;;1.40;1.30;;;18.40;67.10;;;;;;5108525;28;20043;-32
2021/03/04 03:13:47;;;;;;;1.88;1.77;;;18.40;67.10;;;;;;5104602;28;20391;-35
2021/03/04 03:16:12;;;;;;;1.85;1.75;;;18.40;67.00;;;;;;5109603;28;20115;-32
2021/03/04 03:18:38;;;;;;;2.10;1.70;;;18.50;67.00;;;;;;5107921;28;20156;-31
2021/03/04 03:21:04;;;;;;;1.98;1.80;;;18.40;66.90;;;;;;5107807;28;20598;-30
2021/03/04 03:23:30;;;;;;;1.50;1.40;;;18.40;66.90;;;;;;5109975;28;20044;-36
2021/03/04 03:25:55;;;;;;;1.75;1.63;;;18.40;67.20;;;;;;5106253;28;20043;-32
2021/03/04 03:28:21;;;;;;;1.63;1.52;;;18.40;66.90;;;;;;5105529;28;20081;-31
2021/03/04 03:30:47;;;;;;;1.70;1.60;;;18.40;67.10;;;;;;5108542;28;20485;-34
2021/03/04 03:33:14;;;;;;;1.70;1.60;;;18.40;67.10;;;;;;5108016;28;20184;-32
2021/03/04 03:35:40;;;;;;;1.73;1.38;;;18.30;67.10;;;;;;5110195;27;20457;-31
2021/03/04 03:38:05;;;;;;;2.05;1.92;;;18.40;67.30;;;;;;5109030;28;20492;-32
2021/03/04 03:40:32;;;;;;;2.22;1.50;;;18.30;67.20;;;;;;5108104;28;20046;-33
2021/03/04 03:42:59;;;;;;;1.10;1.10;;;18.30;67.30;;;;;;5107117;28;20039;-34
2021/03/04 03:45:34;;;;;;;1.45;1.35;;;18.30;67.40;;;;;;5106853;28;20130;-37
2021/03/04 03:47:59;;;;;;;1.70;1.60;;;18.30;67.50;;;;;;5107878;28;20095;-30
2021/03/04 03:50:25;;;;;;;1.75;1.63;;;18.30;67.30;;;;;;5102519;28;20126;-31
2021/03/04 03:52:52;;;;;;;1.83;1.73;;;18.30;67.20;;;;;;5108693;28;20047;-37
2021/03/04 03:55:17;;;;;;;1.63;1.52;;;18.30;67.80;;;;;;5107968;28;20545;-34
2021/03/04 03:57:43;;;;;;;1.70;1.60;;;18.30;67.10;;;;;;5108757;28;20126;-32
2021/03/04 04:00:09;;;;;;;2.33;1.70;;;18.30;67.30;;;;;;5106682;28;20104;-34
2021/03/04 04:02:35;;;;;;;1.60;1.50;;;18.30;67.10;;;;;;5109579;27;20493;-33
2021/03/04 04:05:01;;;;;;;1.65;1.40;;;18.30;67.10;;;;;;5108520;28;20050;-29
2021/03/04 04:07:35;;;;;;;1.80;1.70;;;18.30;67.00;;;;;;5106243;28;20046;-31
2021/03/04 04:10:03;;;;;;;1.67;1.58;;;18.30;67.00;;;;;;5108364;28;20050;-32
2021/03/04 04:12:28;;;;;;;1.48;1.38;;;18.30;66.90;;;;;;5108149;28;20051;-32
2021/03/04 04:14:54;;;;;;;1.30;1.20;;;18.30;67.20;;;;;;5107443;28;20035;-33
2021/03/04 04:17:20;;;;;;;1.50;1.40;;;18.30;67.10;;;;;;5108093;28;20378;-37
2021/03/04 04:19:45;;;;;;;1.50;1.40;;;18.30;67.20;;;;;;5106543;28;20035;-36
2021/03/04 04:22:11;;;;;;;1.50;1.40;;;18.30;67.10;;;;;;5090733;28;20042;-33
2021/03/04 04:24:36;;;;;;;1.42;1.30;;;18.30;67.00;;;;;;5106995;28;20036;-32
2021/03/04 04:27:03;;;;;;;1.55;1.45;;;18.30;67.30;;;;;;5089353;28;20039;-32
2021/03/04 04:29:28;;;;;;;1.88;1.70;;;18.30;67.10;;;;;;5108407;28;20058;-34
2021/03/04 04:31:54;;;;;;;1.60;1.33;;;18.30;67.10;;;;;;5107395;28;20055;-32
2021/03/04 04:34:19;;;;;;;1.70;1.55;;;18.30;67.20;;;;;;5105758;28;20037;-32
2021/03/04 04:36:45;;;;;;;1.33;1.23;;;18.30;67.30;;;;;;5107675;28;20135;-32
2021/03/04 04:39:11;;;;;;;1.90;1.40;;;18.30;67.20;;;;;;5107244;28;20048;-32
2021/03/04 04:41:36;;;;;;;1.70;1.60;;;18.30;67.40;;;;;;5108796;28;20413;-31
2021/03/04 04:44:02;;;;;;;1.80;1.70;;;18.30;67.20;;;;;;5106418;28;20451;-35
2021/03/04 04:46:27;;;;;;;1.65;1.55;;;18.20;67.20;;;;;;5105767;28;20044;-35
2021/03/04 04:48:53;;;;;;;1.40;1.30;;;18.20;67.30;;;;;;5107030;28;20040;-35
2021/03/04 04:51:18;;;;;;;1.88;1.77;;;18.20;67.30;;;;;;5106477;28;20046;-33
2021/03/04 04:53:44;;;;;;;1.40;1.30;;;18.20;67.20;;;;;;5110470;28;20112;-38
2021/03/04 04:56:10;;;;;;;1.30;1.20;;;18.20;67.20;;;;;;5106176;28;20138;-30
2021/03/04 04:58:35;;;;;;;1.50;1.40;;;18.20;67.20;;;;;;5106449;28;20138;-34
2021/03/04 05:01:01;;;;;;;2.63;1.67;;;18.30;67.00;;;;;;5106048;28;20051;-32
2021/03/04 05:03:26;;;;;;;2.15;1.33;;;18.20;66.90;;;;;;5104782;28;20065;-30
2021/03/04 05:05:52;;;;;;;1.88;1.30;;;18.30;67.00;;;;;;5109188;28;20390;-33
2021/03/04 05:08:18;;;;;;;1.70;1.30;;;18.30;66.80;;;;;;5108984;28;20163;-31
2021/03/04 05:10:43;;;;;;;1.60;1.50;;;18.30;66.70;;;;;;5105655;28;20127;-34
2021/03/04 05:13:09;;;;;;;1.60;1.50;;;18.30;66.80;;;;;;5107383;28;20047;-34
2021/03/04 05:15:35;;;;;;;1.52;1.42;;;18.20;66.70;;;;;;5106874;28;20079;-33
2021/03/04 05:18:00;;;;;;;1.60;1.50;;;18.30;67.00;;;;;;5107546;28;20040;-31
2021/03/04 05:20:26;;;;;;;2.10;1.33;;;18.20;66.90;;;;;;5109658;28;20054;-32
2021/03/04 05:22:51;;;;;;;2.38;1.80;;;18.20;66.80;;;;;;5107128;28;20443;-33
2021/03/04 05:25:17;;;;;;;1.42;1.33;;;18.20;66.90;;;;;;5107665;28;20066;-35
2021/03/04 05:27:43;;;;;;;1.50;1.40;;;18.20;66.90;;;;;;5106401;28;20702;-31
2021/03/04 05:30:09;;;;;;;1.75;1.50;;;18.20;66.90;;;;;;5107438;28;20117;-41
2021/03/04 05:32:34;;;;;;;1.60;1.50;;;18.20;66.80;;;;;;5108498;28;20119;-32
2021/03/04 05:35:00;;;;;;;1.45;1.35;;;18.20;66.70;;;;;;5108408;28;20512;-33
2021/03/04 05:37:26;;;;;;;1.58;1.48;;;18.30;66.50;;;;;;5110320;28;20105;-33
2021/03/04 05:39:51;;;;;;;1.40;1.30;;;18.30;66.30;;;;;;5110658;28;20142;-33
2021/03/04 05:42:17;;;;;;;1.30;1.20;;;18.30;66.40;;;;;;5111872;27;20046;-32
2021/03/04 05:44:43;;;;;;;1.50;1.40;;;18.30;66.10;;;;;;5107460;28;20131;-31
2021/03/04 05:47:09;;;;;;;1.30;1.30;;;18.30;66.00;;;;;;5108187;28;20409;-35
2021/03/04 05:49:50;;;;;;;1.20;1.10;;;18.40;66.30;;;;;;5107495;28;20045;-30
2021/03/04 05:52:18;;;;;;;1.30;1.20;;;18.40;66.10;;;;;;5110933;28;20047;-31
2021/03/04 05:54:45;;;;;;;1.83;1.73;;;18.30;66.10;;;;;;5108231;27;20414;-33
2021/03/04 05:57:11;;;;;;;1.58;1.48;;;18.30;66.30;;;;;;5108959;28;20085;-31
2021/03/04 05:59:38;;;;;;;1.55;1.45;;;18.30;66.30;;;;;;5112230;28;20051;-32
2021/03/04 06:02:07;;;;;;;1.48;1.38;;;18.30;66.40;;;;;;5110826;28;20112;-33
2021/03/04 06:04:33;;;;;;;1.40;1.30;;;18.30;66.40;;;;;;5107973;28;20052;-31
2021/03/04 06:06:58;;;;;;;1.08;1.00;;;18.30;66.30;;;;;;5110090;27;20101;-34
2021/03/04 06:09:24;;;;;;;1.45;1.35;;;18.30;65.90;;;;;;5109651;28;20111;-31
2021/03/04 06:11:49;;;;;;;1.40;1.30;;;18.40;65.80;;;;;;5110528;28;20127;-36
2021/03/04 06:14:15;;;;;;;1.17;1.10;;;18.40;66.10;;;;;;5110119;28;20112;-36
2021/03/04 06:16:41;;;;;;;1.45;1.35;;;18.30;66.10;;;;;;5108533;27;20043;-30
2021/03/04 06:19:17;;;;;;;1.80;1.40;;;18.30;65.90;;;;;;5108036;28;20053;-34
2021/03/04 06:21:42;;;;;;;2.00;1.58;;;18.30;66.00;;;;;;5109922;28;20051;-32
2021/03/04 06:24:13;;;;;;;1.42;1.38;;;18.30;66.10;;;;;;5110108;28;20039;-32
2021/03/04 06:26:39;;;;;;;1.20;1.20;;;18.30;66.30;;;;;;5111976;28;20070;-29
2021/03/04 06:29:18;;;;;;;1.48;1.38;;;18.30;66.00;;;;;;5108413;28;20071;-35
2021/03/04 06:31:44;;;;;;;1.50;1.40;;;18.30;65.90;;;;;;5107626;27;20521;-34
2021/03/04 06:34:21;;;;;;;1.52;1.42;;;18.30;66.00;;;;;;5109623;28;20114;-35
2021/03/04 06:37:05;;;;;;;1.40;1.17;;;18.40;65.80;;;;;;5109575;27;20043;-30
2021/03/04 06:39:42;;;;;;;2.78;1.30;;;18.40;66.40;;;;;;5092703;28;20482;-37
2021/03/04 06:42:08;;;;;;;1.33;1.20;;;18.30;65.80;;;;;;5109239;28;20086;-34
2021/03/04 06:44:44;;;;;;;1.83;1.55;;;18.30;65.80;;;;;;5110798;28;20049;-32
2021/03/04 06:47:10;;;;;;;1.40;1.30;;;18.30;65.90;;;;;;5109196;27;20071;-29
2021/03/04 06:49:40;;;;;;;1.30;1.10;;;18.30;66.00;;;;;;5108567;28;20506;-32
2021/03/04 06:52:06;;;;;;;1.50;1.40;;;18.30;65.90;;;;;;5109824;28;20058;-32
2021/03/04 06:54:32;;;;;;;1.48;1.38;;;18.20;66.10;;;;;;5108569;28;20036;-32
2021/03/04 06:57:11;;;;;;;1.95;1.85;;;18.20;66.10;;;;;;5109711;28;20047;-34
2021/03/04 06:59:43;;;;;;;1.58;1.48;;;18.20;66.40;;;;;;5111072;28;20398;-34
2021/03/04 07:02:09;;;;;;;2.25;1.45;;;18.20;66.40;;;;;;5108237;27;20043;-34
2021/03/04 07:04:35;;;;;;;1.55;1.45;;;18.20;66.40;;;;;;5108257;28;20574;-35
2021/03/04 07:07:01;;;;;;;1.50;1.40;;;18.20;66.50;;;;;;5108201;28;20071;-34
2021/03/04 07:09:28;;;;;;;1.50;1.40;;;18.20;66.50;;;;;;5108502;28;20397;-34
2021/03/04 07:11:54;;;;;;;1.38;1.33;;;18.20;66.10;;;;;;5099019;28;20040;-30
2021/03/04 07:14:19;;;;;;;1.30;1.20;;;18.20;66.40;;;;;;5110915;28;20641;-31
2021/03/04 07:16:45;;;;;;;1.30;1.20;;;18.20;66.20;;;;;;5108554;28;20086;-32
2021/03/04 07:19:12;;;;;;;1.50;1.40;;;18.20;66.50;;;;;;5109345;28;20036;-33
2021/03/04 07:21:42;;;;;;;1.20;1.20;;;18.20;66.50;;;;;;5106415;28;20035;-30
2021/03/04 07:24:08;;;;;;;1.58;1.48;;;18.10;66.50;;;;;;5108444;27;20540;-31
2021/03/04 07:26:36;;;;;;;1.52;1.42;;;18.20;66.40;;;;;;5109882;28;20039;-34
2021/03/04 07:29:02;;;;;;;1.60;1.50;;;18.20;66.30;;;;;;5107861;28;20055;-34
2021/03/04 07:31:28;;;;;;;1.27;1.27;;;18.20;66.10;;;;;;5107937;28;20043;-34
2021/03/04 07:33:53;;;;;;;1.40;1.30;;;18.20;65.80;;;;;;5107611;27;20055;-31
2021/03/04 07:36:20;;;;;;;2.05;1.40;;;18.20;66.10;;;;;;5107016;28;20040;-32
2021/03/04 07:39:13;;;;;;;1.30;1.20;;;18.20;66.10;;;;;;5111510;28;20043;-29
2021/03/04 07:41:43;;;;;;;1.48;1.38;;;18.30;65.90;;;;;;5102609;28;20127;-32
2021/03/04 07:44:09;;;;;;;1.50;1.40;;;18.20;65.90;;;;;;5106507;28;20143;-29
2021/03/04 07:46:42;;;;;;;1.70;1.60;;;18.30;65.90;;;;;;5107688;28;20036;-35
2021/03/04 07:49:08;;;;;;;1.10;1.10;;;18.30;65.80;;;;;;5107944;28;20042;-31
2021/03/04 07:51:44;;;;;;;1.60;1.50;;;18.20;65.80;;;;;;5101268;28;20417;-35
2021/03/04 07:54:11;;;;;;;1.60;1.50;;;18.20;65.70;;;;;;5099169;27;20047;-34
2021/03/04 07:56:36;;;;;;;1.40;1.30;;;18.20;65.70;;;;;;5099914;27;20043;-33
2021/03/04 07:59:12;;;;;;;1.23;1.20;;;18.20;65.90;;;;;;5099298;27;20391;-31
2021/03/04 08:01:41;;;;;;;1.20;1.20;;;18.20;65.90;;;;;;5105579;28;20043;-32
2021/03/04 08:04:18;;;;;;;1.27;1.17;;;18.10;66.00;;;;;;5107902;28;20505;-34
2021/03/04 08:06:44;;;;;;;1.13;1.13;;;18.10;66.10;;;;;;5106440;28;20047;-33
2021/03/04 08:09:09;;;;;;;1.40;1.30;;;18.10;66.20;;;;;;5107857;28;20040;-30
2021/03/04 08:11:35;;;;;;;3.72;1.50;;;18.10;66.70;;;;;;5108898;28;20054;-34
2021/03/04 08:14:13;;;;;;;1.60;1.50;;;18.10;67.20;;;;;;5107044;28;20043;-31
2021/03/04 08:16:39;;;;;;;1.70;1.60;;;18.10;68.40;;;;;;5107088;27;20077;-32
2021/03/04 08:19:04;;;;;;;1.60;1.50;;;18.20;66.60;;;;;;5106781;27;20550;-33
2021/03/04 08:21:30;;;;;;;1.58;1.42;;;18.40;66.10;;;;;;5106985;28;20052;-35
2021/03/04 08:23:55;;;;;;;1.75;1.65;;;18.60;65.70;;;;;;5090244;28;20052;-35
2021/03/04 08:26:21;;;;;;;1.65;1.38;;;18.60;66.40;;;;;;5110831;28;20146;-35
2021/03/04 08:28:47;;;;;;;1.50;1.40;;;18.60;66.00;;;;;;5106921;27;20050;-33
2021/03/04 08:31:12;;;;;;;3.53;1.50;;;18.50;65.30;;;;;;5102969;28;20040;-33
2021/03/04 08:33:38;;;;;;;2.00;1.90;;;18.60;65.30;;;;;;5104432;28;20039;-33
2021/03/04 08:36:04;;;;;;;1.58;1.52;;;18.60;65.30;;;;;;5108481;27;20040;-38
2021/03/04 08:38:37;;;;;;;1.48;1.38;;;18.60;65.80;;;;;;5105033;28;20578;-33
2021/03/04 08:41:03;;;;;;;2.13;1.92;;;18.70;66.10;;;;;;5106817;27;20031;-32
2021/03/04 08:43:29;;;;;;;2.38;1.70;;;18.60;66.90;;;;;;5111477;28;20047;-40
2021/03/04 08:46:04;;;;;;;2.42;1.80;;;18.50;67.20;;;;;;5109175;27;20167;-33
2021/03/04 08:48:30;;;;;;;1.95;1.85;;;18.50;68.60;;;;;;5101886;28;20173;-35
2021/03/04 08:51:00;;;;;;;2.22;2.03;;;18.40;69.00;;;;;;5098981;28;20443;-38
2021/03/04 08:53:33;;;;;;;2.78;2.58;;;18.40;70.10;;;;;;5103352;28;20568;-35
2021/03/04 08:56:00;;;;;;;2.40;2.30;;;18.30;69.00;;;;;;5102691;28;20044;-36
2021/03/04 08:58:28;;;;;;;5.53;2.40;;;18.30;69.20;;;;;;5102462;28;20181;-34
2021/03/04 09:01:00;;;;;;;1.90;1.80;;;18.30;69.80;;;;;;5101339;28;20055;-34
2021/03/04 09:03:27;;;;;;;3.60;2.10;;;18.30;67.70;;;;;;5098721;28;20417;-36
2021/03/04 09:06:09;;;;;;;2.67;2.47;;;18.40;67.20;;;;;;5102593;27;20078;-35
2021/03/04 09:08:36;;;;;;;3.45;2.10;;;18.40;67.20;;;;;;5103948;28;20147;-32
2021/03/04 09:11:02;;;;;;;3.67;2.90;;;18.40;67.40;;;;;;5101683;28;20064;-35
2021/03/04 09:13:27;;;;;;;3.13;2.10;;;18.40;67.90;;;;;;5106552;27;20048;-41
2021/03/04 09:15:55;;;;;;;2.47;2.05;;;18.40;67.20;;;;;;5107793;28;20182;-40
2021/03/04 09:18:24;;;;;;;2.45;2.25;;;18.50;67.20;;;;;;5102458;28;20043;-36
2021/03/04 09:20:53;;;;;;;4.20;2.55;;;18.50;67.10;;;;;;5104965;27;20271;-39
2021/03/04 09:23:20;;;;;;;2.95;2.72;;;18.60;67.20;;;;;;5104041;28;20024;-39
2021/03/04 09:25:46;;;;;;;2.38;2.17;;;18.60;68.20;;;;;;5107513;27;20429;-37
2021/03/04 09:28:13;;;;;;;3.10;2.80;;;18.70;66.90;;;;;;5110971;28;20044;-34
2021/03/04 09:30:38;;;;;;;3.10;2.90;;;18.80;66.70;;;;;;5101631;28;20106;-30
2021/03/04 09:33:14;;;;;;;3.33;3.03;;;18.80;67.40;;;;;;5107083;28;20178;-37
2021/03/04 09:35:50;;;;;;;4.07;2.85;;;18.70;67.10;;;;;;5108765;28;20040;-36
2021/03/04 09:38:16;;;;;;;3.30;2.55;;;18.80;67.60;;;;;;5108400;28;20032;-33
2021/03/04 09:40:43;;;;;;;5.85;2.85;;;18.90;67.70;;;;;;5102421;28;20044;-34
2021/03/04 09:43:15;;;;;;;4.63;3.20;;;18.90;67.80;;;;;;5105715;28;20090;-36
2021/03/04 09:45:48;;;;;;;2.80;2.60;;;18.90;67.90;;;;;;5104718;28;20044;-37
2021/03/04 09:48:14;;;;;;;4.88;3.08;;;18.90;67.90;;;;;;5102508;27;20118;-42
2021/03/04 09:50:50;;;;;;;4.85;2.92;;;18.90;68.20;;;;;;5108628;28;20039;-32
2021/03/04 09:53:17;;;;;;;7.63;3.03;;;18.90;68.10;;;;;;5109379;28;20073;-36
2021/03/04 09:55:43;;;;;;;7.43;3.65;;;18.90;70.60;;;;;;5109486;27;20044;-37
2021/03/04 09:58:14;;;;;;;4.72;3.13;;;19.00;70.00;;;;;;5109543;28;20100;-36
2021/03/04 10:00:40;;;;;;;4.18;3.08;;;18.90;69.80;;;;;;5104208;28;20031;-34
2021/03/04 10:03:10;;;;;;;4.90;2.95;;;18.70;69.90;;;;;;5102750;28;20051;-36
2021/03/04 10:05:48;;;;;;;3.28;2.95;;;18.70;70.00;;;;;;5106527;28;20410;-36
2021/03/04 10:08:14;;;;;;;3.60;2.63;;;18.60;69.20;;;;;;5105857;28;20497;-32
2021/03/04 10:10:39;;;;;;;3.15;2.90;;;18.70;68.70;;;;;;5104305;27;20402;-36
2021/03/04 10:13:05;;;;;;;3.50;3.15;;;18.80;68.00;;;;;;5105875;27;20051;-39
2021/03/04 10:15:34;;;;;;;2.55;2.45;;;18.80;68.00;;;;;;5103588;28;20043;-40
2021/03/04 10:18:05;;;;;;;4.75;2.65;;;18.80;68.20;;;;;;5105617;28;20044;-36
2021/03/04 10:20:31;;;;;;;2.20;2.10;;;18.90;68.20;;;;;;5105302;28;20048;-33
2021/03/04 10:22:57;;;;;;;7.22;3.55;;;18.90;67.60;;;;;;5107142;27;20392;-34
2021/03/04 10:25:23;;;;;;;2.75;2.55;;;18.90;68.80;;;;;;5109159;28;20410;-39
2021/03/04 10:27:49;;;;;;;2.78;2.30;;;19.00;67.80;;;;;;5105682;28;20127;-37
2021/03/04 10:30:15;;;;;;;3.72;2.90;;;19.10;68.50;;;;;;5101637;28;20575;-34
2021/03/04 10:32:40;;;;;;;3.33;2.70;;;19.10;68.80;;;;;;5107509;27;20048;-32
2021/03/04 10:35:08;;;;;;;3.17;2.92;;;19.20;68.00;;;;;;5104329;28;20084;-33
2021/03/04 10:37:34;;;;;;;6.18;3.00;;;19.30;69.90;;;;;;5106084;28;20467;-36
2021/03/04 10:39:59;;;;;;;4.90;2.63;;;19.40;69.00;;;;;;5105560;28;20043;-34
2021/03/04 10:42:25;;;;;;;3.10;2.80;;;19.40;68.60;;;;;;5103084;28;20035;-36
2021/03/04 10:44:54;;;;;;;5.18;2.90;;;19.40;70.00;;;;;;5107424;27;20043;-38
2021/03/04 10:47:19;;;;;;;3.42;2.47;;;19.30;70.00;;;;;;5109099;27;20039;-36
2021/03/04 10:49:45;;;;;;;2.80;2.60;;;19.40;69.30;;;;;;5101687;28;20173;-36
2021/03/04 10:52:11;;;;;;;2.60;2.40;;;19.50;69.10;;;;;;5102590;28;20123;-36
2021/03/04 10:54:36;;;;;;;5.28;2.65;;;19.50;69.20;;;;;;4746971;28;10000013;-37
2021/03/04 10:57:02;;;;;;;6.18;3.00;;;19.50;69.80;;;;;;5098132;28;20134;-35
2021/03/04 10:59:27;;;;;;;2.92;2.72;;;19.50;69.10;;;;;;5093875;28;20036;-32
2021/03/04 11:01:53;;;;;;;2.72;2.53;;;19.40;68.40;;;;;;5094245;28;20497;-31
2021/03/04 11:04:18;;;;;;;2.75;2.30;;;19.40;68.70;;;;;;5093556;28;20558;-33
2021/03/04 11:06:44;;;;;;;4.88;2.55;;;19.50;69.10;;;;;;5091937;27;20086;-37
2021/03/04 11:09:09;;;;;;;3.85;2.33;;;19.50;69.90;;;;;;5093040;27;20506;-36
2021/03/04 11:11:35;;;;;;;5.25;2.65;;;19.50;68.70;;;;;;5094631;28;20079;-32
2021/03/04 11:14:00;;;;;;;3.05;2.85;;;19.60;68.30;;;;;;5093709;28;20048;-36
2021/03/04 11:16:26;;;;;;;6.78;2.33;;;19.60;68.10;;;;;;5098366;28;20094;-34
2021/03/04 11:18:52;;;;;;;2.50;2.30;;;19.60;67.40;;;;;;5104234;28;20051;-33
2021/03/04 11:21:17;;;;;;;2.50;2.30;;;19.60;67.50;;;;;;5089179;28;20058;-37
2021/03/04 11:23:43;;;;;;;2.33;2.13;;;19.60;67.30;;;;;;5094824;28;20032;-33
2021/03/04 11:26:08;;;;;;;3.13;2.17;;;19.60;67.20;;;;;;5090991;28;20043;-33
2021/03/04 11:28:34;;;;;;;2.80;2.15;;;19.70;66.40;;;;;;5092237;28;20544;-30
2021/03/04 11:30:59;;;;;;;2.78;2.58;;;19.60;66.50;;;;;;5091760;28;20578;-32
2021/03/04 11:33:25;;;;;;;2.63;2.42;;;19.60;67.00;;;;;;5090455;28;20445;-31
2021/03/04 11:35:51;;;;;;;4.13;2.53;;;19.60;67.20;;;;;;5103026;28;20078;-35
2021/03/04 11:38:16;;;;;;;3.45;2.13;;;19.50;67.00;;;;;;5095064;28;20051;-35
2021/03/04 11:40:42;;;;;;;3.63;2.00;;;19.60;66.80;;;;;;5097851;28;20146;-36
2021/03/04 11:43:07;;;;;;;2.38;2.17;;;19.60;66.10;;;;;;5091010;28;20105;-36
2021/03/04 11:45:33;;;;;;;2.10;2.00;;;19.60;66.20;;;;;;5094923;28;20039;-35
2021/03/04 11:47:59;;;;;;;3.67;2.25;;;19.70;66.20;;;;;;5095497;28;20130;-35
2021/03/04 11:50:25;;;;;;;2.80;2.60;;;19.70;66.00;;;;;;5103504;27;20050;-34
2021/03/04 11:52:50;;;;;;;3.70;3.40;;;19.70;66.50;;;;;;5099540;27;20047;-35
2021/03/04 11:55:16;;;;;;;5.20;4.57;;;19.70;66.50;;;;;;5100379;27;20123;-35
2021/03/04 11:57:41;;;;;;;4.55;3.65;;;19.70;67.90;;;;;;5105233;28;20062;-35
2021/03/04 12:00:08;;;;;;;3.65;3.35;;;19.80;66.80;;;;;;5103561;28;20044;-38
2021/03/04 12:02:34;;;;;;;3.72;3.20;;;19.70;66.50;;;;;;5104380;28;20051;-39
2021/03/04 12:04:59;;;;;;;3.15;2.95;;;19.70;66.50;;;;;;5098378;28;20040;-36
2021/03/04 12:07:25;;;;;;;4.50;3.20;;;19.70;67.00;;;;;;5099752;28;20051;-33
2021/03/04 12:09:50;;;;;;;4.85;3.78;;;19.70;66.50;;;;;;5101170;27;20031;-33
2021/03/04 12:12:16;;;;;;;5.32;3.60;;;19.70;66.90;;;;;;5096836;28;20076;-35
2021/03/04 12:14:41;;;;;;;3.80;3.40;;;19.80;66.50;;;;;;5102239;28;20101;-38
2021/03/04 12:17:07;;;;;;;4.13;3.63;;;19.80;66.30;;;;;;5096949;28;20790;-36
2021/03/04 12:19:32;;;;;;;3.70;3.40;;;19.80;67.10;;;;;;5099944;27;20528;-34
2021/03/04 12:21:58;;;;;;;6.80;3.50;;;19.80;67.10;;;;;;5098088;27;20480;-36
2021/03/04 12:24:23;;;;;;;5.15;3.80;;;19.80;67.40;;;;;;5098059;27;20048;-35
2021/03/04 12:26:49;;;;;;;8.80;3.72;;;19.80;67.30;;;;;;5098714;27;20028;-35
2021/03/04 12:29:15;;;;;;;3.75;3.33;;;19.80;67.20;;;;;;5100017;27;20541;-39
2021/03/04 12:31:41;;;;;;;3.72;3.42;;;19.80;67.70;;;;;;5095713;28;20050;-37
2021/03/04 12:34:06;;;;;;;5.15;4.20;;;19.70;67.50;;;;;;5086935;27;20256;-33
2021/03/04 12:36:32;;;;;;;4.40;4.00;;;19.70;67.50;;;;;;5094778;28;20042;-38
2021/03/04 12:38:58;;;;;;;3.60;3.13;;;19.70;67.40;;;;;;5096970;28;20039;-38
2021/03/04 12:41:24;;;;;;;3.28;3.08;;;19.70;67.10;;;;;;5093297;28;20044;-35
2021/03/04 12:43:49;;;;;;;3.17;2.97;;;19.70;66.90;;;;;;5098039;27;20116;-38
2021/03/04 12:46:15;;;;;;;3.22;2.92;;;19.70;66.80;;;;;;5103265;27;20521;-37